Articles

IAA

Share

Share

Trim Flying Club goes to the Aran Islands

Learn to fly at Trim Flying Club

Rainfall Radar Now

Atlantic Charts Pressure - Today

Atlantic Charts Rainfall - Today

 
 

Atlantic Charts Pressure - Tomorrow

Sunrise Sunset

Click for Dublin, Ireland Forecast

Aviation WX Dublin EIDW

[source: ADDS]
METAR
EIDW 020000Z 10006KT 9999 SCT003 BKN047 BKN080 15/14 Q1002 NOSIG =
TAF
TAF EIDW 012300Z 0200/0224 11010KT 9999 SCT015 BKN030 BECMG 0201/0203 04012KT -RADZ BKN008 TEMPO 0203/0215 4000 RA BKN005 BECMG 0215/0217 33013KT NSW =